Time;durP1;ratioP1;P1;durP2;ratioP2;P2;SDS_P1;SDS_P2;PMS_P1;PMS_P2;Temp;Humidity;BMP_temperature;BMP_pressure;BME280_temperature;BME280_humidity;BME280_pressure;Samples;Min_cycle;Max_cycle;Signal;HPM_P1;HPM_P2
2024/01/04 00:01:13;;;;;;;3.47;1.20;;;;;;;;;;4974385;28;20064;-67
2024/01/04 00:03:39;;;;;;;2.85;1.10;;;;;;;;;;4991712;28;20061;-67
2024/01/04 00:06:05;;;;;;;1.75;1.10;;;;;;;;;;4979425;28;20051;-67
2024/01/04 00:08:31;;;;;;;2.38;0.95;;;;;;;;;;4971854;28;20092;-67
2024/01/04 00:10:58;;;;;;;3.65;1.48;;;;;;;;;;4974127;28;20074;-67
2024/01/04 00:13:24;;;;;;;5.38;1.10;;;;;;;;;;4972008;28;20065;-67
2024/01/04 00:15:50;;;;;;;3.83;1.23;;;;;;;;;;4972137;28;20043;-67
2024/01/04 00:18:16;;;;;;;4.20;1.33;;;;;;;;;;4971430;28;20047;-67
2024/01/04 00:20:42;;;;;;;4.32;0.93;;;;;;;;;;4970796;28;20038;-67
2024/01/04 00:23:08;;;;;;;6.78;1.48;;;;;;;;;;4971691;28;20178;-67
2024/01/04 00:25:37;;;;;;;2.97;1.17;;;;;;;;;;4971425;28;20045;-67
2024/01/04 00:28:03;;;;;;;7.03;1.40;;;;;;;;;;4971859;28;20106;-67
2024/01/04 00:30:32;;;;;;;3.88;0.93;;;;;;;;;;4971577;28;20035;-67
2024/01/04 00:32:58;;;;;;;5.32;1.27;;;;;;;;;;4978418;28;20495;-67
2024/01/04 00:35:24;;;;;;;3.88;1.30;;;;;;;;;;4954177;28;20050;-67
2024/01/04 00:37:50;;;;;;;4.63;1.02;;;;;;;;;;4971335;28;20436;-67
2024/01/04 00:40:16;;;;;;;2.67;1.08;;;;;;;;;;4971380;28;20049;-67
2024/01/04 00:42:42;;;;;;;3.40;1.20;;;;;;;;;;4971571;28;20081;-67
2024/01/04 00:45:08;;;;;;;5.65;1.25;;;;;;;;;;4974147;28;20042;-67
2024/01/04 00:47:34;;;;;;;6.75;1.40;;;;;;;;;;4985004;28;20046;-67
2024/01/04 00:50:00;;;;;;;8.10;1.40;;;;;;;;;;4970632;28;20042;-67
2024/01/04 00:52:26;;;;;;;5.45;1.27;;;;;;;;;;4971636;28;20390;-67
2024/01/04 00:54:52;;;;;;;5.00;1.20;;;;;;;;;;4988279;28;20113;-67
2024/01/04 00:57:18;;;;;;;5.90;1.30;;;;;;;;;;4983183;28;20042;-67
2024/01/04 00:59:44;;;;;;;4.65;1.48;;;;;;;;;;4972637;28;20046;-67
2024/01/04 01:02:10;;;;;;;5.78;1.42;;;;;;;;;;4978933;28;20047;-67
2024/01/04 01:04:37;;;;;;;4.45;1.23;;;;;;;;;;4953698;28;20716;-67
2024/01/04 01:07:03;;;;;;;6.00;1.40;;;;;;;;;;4989510;28;20045;-67
2024/01/04 01:09:29;;;;;;;3.33;1.33;;;;;;;;;;4984658;28;20057;-67
2024/01/04 01:11:55;;;;;;;2.13;1.10;;;;;;;;;;4978498;28;20030;-67
2024/01/04 01:14:21;;;;;;;5.47;1.30;;;;;;;;;;4977630;28;20069;-67
2024/01/04 01:16:47;;;;;;;5.25;1.65;;;;;;;;;;4953726;28;20077;-67
2024/01/04 01:19:13;;;;;;;6.22;1.45;;;;;;;;;;4970081;28;20039;-67
2024/01/04 01:21:41;;;;;;;4.88;1.50;;;;;;;;;;4970655;28;20523;-67
2024/01/04 01:24:07;;;;;;;6.13;1.70;;;;;;;;;;4970897;28;20054;-67
2024/01/04 01:26:33;;;;;;;7.00;1.42;;;;;;;;;;4970365;28;20046;-67
2024/01/04 01:28:59;;;;;;;6.65;1.40;;;;;;;;;;4970153;28;20059;-67
2024/01/04 01:31:25;;;;;;;9.70;2.25;;;;;;;;;;4970728;28;20050;-67
2024/01/04 01:33:51;;;;;;;6.78;2.00;;;;;;;;;;4978325;28;20625;-67
2024/01/04 01:36:17;;;;;;;4.07;1.55;;;;;;;;;;4989328;28;20041;-67
2024/01/04 01:38:42;;;;;;;7.40;1.50;;;;;;;;;;4974197;28;20053;-67
2024/01/04 01:41:08;;;;;;;4.43;1.20;;;;;;;;;;4970490;28;20157;-67
2024/01/04 01:43:34;;;;;;;5.93;1.83;;;;;;;;;;4970140;28;20117;-67
2024/01/04 01:46:01;;;;;;;7.10;1.45;;;;;;;;;;4972077;28;20053;-67
2024/01/04 01:48:27;;;;;;;4.38;1.20;;;;;;;;;;4977196;28;20042;-67
2024/01/04 01:50:53;;;;;;;4.60;1.10;;;;;;;;;;4984965;28;20092;-67
2024/01/04 01:53:19;;;;;;;3.40;1.25;;;;;;;;;;4986945;28;20078;-67
2024/01/04 01:55:45;;;;;;;3.60;1.23;;;;;;;;;;4970058;28;20101;-67
2024/01/04 01:58:11;;;;;;;5.20;1.35;;;;;;;;;;4978823;28;20078;-67
2024/01/04 02:00:37;;;;;;;9.23;1.10;;;;;;;;;;4988914;28;20068;-67
2024/01/04 02:03:04;;;;;;;8.20;1.20;;;;;;;;;;4972833;28;20082;-67
2024/01/04 02:05:30;;;;;;;5.80;1.73;;;;;;;;;;4969835;28;20074;-67
2024/01/04 02:07:57;;;;;;;6.18;1.50;;;;;;;;;;4970231;28;20077;-67
2024/01/04 02:10:23;;;;;;;8.18;2.03;;;;;;;;;;4980416;28;20117;-67
2024/01/04 02:12:49;;;;;;;7.30;1.30;;;;;;;;;;4987303;28;20137;-67
2024/01/04 02:15:15;;;;;;;4.85;1.00;;;;;;;;;;4971440;28;20060;-67
2024/01/04 02:17:41;;;;;;;3.92;0.82;;;;;;;;;;4975030;28;20046;-67
2024/01/04 02:20:08;;;;;;;6.03;1.00;;;;;;;;;;4971343;28;20101;-67
2024/01/04 02:22:36;;;;;;;4.75;1.13;;;;;;;;;;4976413;28;20035;-67
2024/01/04 02:25:03;;;;;;;5.75;0.98;;;;;;;;;;4969896;28;20505;-67
2024/01/04 02:27:29;;;;;;;2.60;1.20;;;;;;;;;;4969392;28;20078;-67
2024/01/04 02:29:55;;;;;;;4.38;0.80;;;;;;;;;;4969458;28;20073;-67
2024/01/04 02:32:21;;;;;;;4.95;1.20;;;;;;;;;;4969963;28;20023;-67
2024/01/04 02:34:47;;;;;;;4.85;1.38;;;;;;;;;;4969746;28;20034;-67
2024/01/04 02:37:13;;;;;;;2.05;0.90;;;;;;;;;;4969513;28;20093;-67
2024/01/04 02:39:39;;;;;;;2.83;1.10;;;;;;;;;;4969110;28;20121;-67
2024/01/04 02:42:05;;;;;;;8.88;1.23;;;;;;;;;;4969076;28;20767;-67
2024/01/04 02:44:31;;;;;;;5.43;1.00;;;;;;;;;;4968080;28;20086;-67
2024/01/04 02:46:57;;;;;;;5.95;1.20;;;;;;;;;;4983473;28;20074;-67
2024/01/04 02:49:23;;;;;;;3.50;1.20;;;;;;;;;;4968603;28;20043;-67
2024/01/04 02:51:49;;;;;;;3.90;1.52;;;;;;;;;;4968979;28;20053;-67
2024/01/04 02:54:15;;;;;;;5.80;1.00;;;;;;;;;;4951786;28;20644;-67
2024/01/04 02:56:41;;;;;;;7.65;1.05;;;;;;;;;;4968708;28;20046;-67
2024/01/04 02:59:07;;;;;;;7.03;1.38;;;;;;;;;;4984575;28;20042;-67
2024/01/04 03:01:33;;;;;;;3.75;1.02;;;;;;;;;;4982267;28;20170;-67
2024/01/04 03:03:59;;;;;;;5.45;1.13;;;;;;;;;;4969445;28;20134;-67
2024/01/04 03:06:27;;;;;;;4.88;1.63;;;;;;;;;;4970481;28;20042;-67
2024/01/04 03:08:53;;;;;;;3.80;1.15;;;;;;;;;;4971269;28;20481;-67
2024/01/04 03:11:19;;;;;;;4.55;0.90;;;;;;;;;;4973756;28;20059;-67
2024/01/04 03:13:46;;;;;;;3.60;0.95;;;;;;;;;;4984723;28;20042;-67
2024/01/04 03:16:12;;;;;;;6.18;1.27;;;;;;;;;;4969188;28;20043;-67
2024/01/04 03:18:38;;;;;;;5.28;1.25;;;;;;;;;;4968209;28;20398;-67
2024/01/04 03:21:08;;;;;;;7.20;1.48;;;;;;;;;;4966570;28;20050;-67
2024/01/04 03:23:34;;;;;;;2.30;1.00;;;;;;;;;;4969148;28;20047;-67
2024/01/04 03:26:00;;;;;;;5.47;0.90;;;;;;;;;;4968648;28;20634;-67
2024/01/04 03:28:26;;;;;;;4.13;0.70;;;;;;;;;;4951907;28;20074;-67
2024/01/04 03:30:52;;;;;;;3.22;1.05;;;;;;;;;;4951249;28;20056;-67
2024/01/04 03:33:18;;;;;;;4.03;0.77;;;;;;;;;;4969020;28;20043;-67
2024/01/04 03:35:44;;;;;;;2.88;0.63;;;;;;;;;;4988420;28;20416;-67
2024/01/04 03:38:10;;;;;;;7.30;1.10;;;;;;;;;;4981526;28;20031;-67
2024/01/04 03:40:37;;;;;;;5.00;0.77;;;;;;;;;;4967338;28;20054;-67
2024/01/04 03:43:04;;;;;;;6.38;0.85;;;;;;;;;;4967968;28;20062;-67
2024/01/04 03:45:30;;;;;;;3.95;0.90;;;;;;;;;;4969699;28;20046;-67
2024/01/04 03:47:56;;;;;;;2.78;0.55;;;;;;;;;;4979652;28;20445;-67
2024/01/04 03:50:22;;;;;;;2.30;0.77;;;;;;;;;;4969028;28;20043;-65
2024/01/04 03:52:48;;;;;;;2.85;0.70;;;;;;;;;;4968140;28;20050;-65
2024/01/04 03:55:15;;;;;;;5.75;0.80;;;;;;;;;;4968936;28;20654;-65
2024/01/04 03:57:43;;;;;;;2.08;0.60;;;;;;;;;;4968814;28;20047;-65
2024/01/04 04:00:09;;;;;;;3.72;0.85;;;;;;;;;;4969108;28;20062;-65
2024/01/04 04:02:35;;;;;;;3.72;0.65;;;;;;;;;;4981102;28;20050;-65
2024/01/04 04:05:01;;;;;;;2.75;0.57;;;;;;;;;;4991760;28;20039;-65
2024/01/04 04:07:27;;;;;;;5.78;0.85;;;;;;;;;;4975078;28;20035;-65
2024/01/04 04:09:53;;;;;;;2.65;0.70;;;;;;;;;;4955441;28;20066;-66
2024/01/04 04:12:19;;;;;;;5.05;0.93;;;;;;;;;;4973515;28;20053;-66
2024/01/04 04:14:45;;;;;;;3.72;0.60;;;;;;;;;;4982582;28;20078;-66
2024/01/04 04:17:12;;;;;;;2.03;0.70;;;;;;;;;;4991506;28;20053;-66
2024/01/04 04:19:38;;;;;;;3.15;0.57;;;;;;;;;;4974102;28;20053;-66
2024/01/04 04:22:04;;;;;;;5.70;0.98;;;;;;;;;;4971526;28;20046;-66
2024/01/04 04:24:31;;;;;;;3.58;0.70;;;;;;;;;;4971361;28;20114;-66
2024/01/04 04:26:57;;;;;;;5.45;0.70;;;;;;;;;;4972085;28;20469;-66
2024/01/04 04:29:23;;;;;;;3.42;0.65;;;;;;;;;;4972142;28;20038;-66
2024/01/04 04:31:49;;;;;;;1.55;0.57;;;;;;;;;;4971293;28;20530;-66
2024/01/04 04:34:15;;;;;;;3.60;0.70;;;;;;;;;;4971949;28;20039;-66
2024/01/04 04:36:41;;;;;;;4.30;0.65;;;;;;;;;;4971687;28;20050;-66
2024/01/04 04:39:08;;;;;;;4.57;0.70;;;;;;;;;;4971645;28;20656;-66
2024/01/04 04:41:34;;;;;;;4.47;0.80;;;;;;;;;;4971221;28;20039;-66
2024/01/04 04:44:00;;;;;;;1.58;0.50;;;;;;;;;;4971314;28;20117;-66
2024/01/04 04:46:26;;;;;;;3.15;0.70;;;;;;;;;;4978350;28;20049;-66
2024/01/04 04:48:55;;;;;;;4.85;0.93;;;;;;;;;;4957540;28;20134;-66
2024/01/04 04:51:22;;;;;;;6.80;0.73;;;;;;;;;;4971299;28;20092;-66
2024/01/04 04:53:48;;;;;;;5.45;0.93;;;;;;;;;;4970896;28;20047;-66
2024/01/04 04:56:14;;;;;;;5.03;0.70;;;;;;;;;;4971360;28;20038;-66
2024/01/04 04:58:40;;;;;;;5.28;0.70;;;;;;;;;;4971112;28;20053;-66
2024/01/04 05:01:08;;;;;;;3.20;0.75;;;;;;;;;;4971162;28;20062;-66
2024/01/04 05:03:34;;;;;;;2.35;0.60;;;;;;;;;;4970405;28;20042;-66
2024/01/04 05:06:00;;;;;;;4.88;0.90;;;;;;;;;;4971320;28;20109;-66
2024/01/04 05:08:26;;;;;;;6.68;0.80;;;;;;;;;;4971303;28;20619;-66
2024/01/04 05:10:52;;;;;;;3.70;0.60;;;;;;;;;;4972408;28;20040;-66
2024/01/04 05:13:18;;;;;;;4.15;0.80;;;;;;;;;;4970336;28;20054;-66
2024/01/04 05:15:44;;;;;;;2.90;0.90;;;;;;;;;;4953512;28;20038;-66
2024/01/04 05:18:10;;;;;;;4.00;0.90;;;;;;;;;;4970857;28;20102;-66
2024/01/04 05:20:36;;;;;;;3.22;0.80;;;;;;;;;;4954062;28;20058;-66
2024/01/04 05:23:02;;;;;;;3.35;1.02;;;;;;;;;;4970259;28;20055;-66
2024/01/04 05:25:28;;;;;;;3.00;0.85;;;;;;;;;;4953054;28;20042;-66
2024/01/04 05:27:54;;;;;;;7.60;1.10;;;;;;;;;;4953360;28;20413;-66
2024/01/04 05:30:20;;;;;;;6.65;1.35;;;;;;;;;;4954843;28;20058;-66
2024/01/04 05:32:46;;;;;;;3.03;0.80;;;;;;;;;;4970170;28;20038;-66
2024/01/04 05:35:12;;;;;;;4.90;0.80;;;;;;;;;;4981785;28;20042;-66
2024/01/04 05:37:38;;;;;;;3.38;0.80;;;;;;;;;;4989960;28;20035;-66
2024/01/04 05:40:05;;;;;;;2.47;0.68;;;;;;;;;;4970976;28;20035;-66
2024/01/04 05:42:31;;;;;;;5.93;1.05;;;;;;;;;;4955119;28;20038;-66
2024/01/04 05:44:57;;;;;;;3.75;0.73;;;;;;;;;;4970399;28;20038;-66
2024/01/04 05:47:23;;;;;;;6.75;1.33;;;;;;;;;;4970002;28;20479;-66
2024/01/04 05:49:49;;;;;;;1.70;1.13;;;;;;;;;;4970708;28;20121;-66
2024/01/04 05:52:15;;;;;;;1.35;0.57;;;;;;;;;;4970123;28;20045;-66
2024/01/04 05:54:41;;;;;;;4.28;1.00;;;;;;;;;;4969648;28;20045;-66
2024/01/04 05:57:07;;;;;;;5.85;0.80;;;;;;;;;;4961947;28;20054;-66
2024/01/04 05:59:33;;;;;;;2.35;1.00;;;;;;;;;;4969382;28;20118;-66
2024/01/04 06:02:00;;;;;;;3.40;0.60;;;;;;;;;;4970065;28;20051;-66
2024/01/04 06:04:26;;;;;;;4.18;0.85;;;;;;;;;;4969710;28;20646;-66
2024/01/04 06:06:55;;;;;;;6.25;1.23;;;;;;;;;;4969748;28;20031;-66
2024/01/04 06:09:21;;;;;;;2.33;0.65;;;;;;;;;;4952653;28;20042;-66
2024/01/04 06:11:48;;;;;;;2.40;0.80;;;;;;;;;;4965359;28;20046;-66
2024/01/04 06:14:14;;;;;;;3.25;0.70;;;;;;;;;;4968326;28;20652;-66
2024/01/04 06:16:40;;;;;;;5.75;1.20;;;;;;;;;;4970136;28;20074;-66
2024/01/04 06:19:06;;;;;;;3.10;0.80;;;;;;;;;;4979481;28;20042;-66
2024/01/04 06:21:32;;;;;;;4.32;0.57;;;;;;;;;;4972062;28;20057;-66
2024/01/04 06:23:59;;;;;;;3.50;1.00;;;;;;;;;;4954643;28;20561;-66
2024/01/04 06:26:25;;;;;;;7.15;1.55;;;;;;;;;;4969388;28;20045;-66
2024/01/04 06:28:51;;;;;;;3.38;1.10;;;;;;;;;;4969816;28;20047;-66
2024/01/04 06:31:17;;;;;;;3.65;0.82;;;;;;;;;;4969729;28;20429;-66
2024/01/04 06:33:43;;;;;;;2.53;0.75;;;;;;;;;;4971262;28;20042;-66
2024/01/04 06:36:09;;;;;;;5.47;1.00;;;;;;;;;;4971131;28;20568;-66
2024/01/04 06:38:35;;;;;;;5.03;0.90;;;;;;;;;;4969549;28;20042;-66
2024/01/04 06:41:04;;;;;;;1.60;0.80;;;;;;;;;;4969748;28;20624;-66
2024/01/04 06:43:30;;;;;;;3.47;0.70;;;;;;;;;;4962821;28;20042;-65
2024/01/04 06:45:59;;;;;;;5.40;0.93;;;;;;;;;;4977210;28;20043;-65
2024/01/04 06:48:27;;;;;;;5.22;1.30;;;;;;;;;;4969923;28;20621;-65
2024/01/04 06:50:53;;;;;;;8.82;1.13;;;;;;;;;;4969644;28;20043;-65
2024/01/04 06:53:19;;;;;;;3.10;0.77;;;;;;;;;;4968882;28;20501;-65
2024/01/04 06:55:45;;;;;;;3.70;1.10;;;;;;;;;;4969258;28;20175;-65
2024/01/04 06:58:11;;;;;;;3.35;0.70;;;;;;;;;;4969001;28;20105;-65
2024/01/04 07:00:37;;;;;;;3.95;0.75;;;;;;;;;;4967612;28;20070;-65
2024/01/04 07:03:03;;;;;;;4.18;0.90;;;;;;;;;;4968035;28;20453;-64
2024/01/04 07:05:30;;;;;;;4.28;0.80;;;;;;;;;;4968618;28;20074;-65
2024/01/04 07:07:56;;;;;;;3.65;0.90;;;;;;;;;;4968160;28;20083;-65
2024/01/04 07:10:22;;;;;;;4.72;0.68;;;;;;;;;;4970435;28;20039;-65
2024/01/04 07:12:48;;;;;;;2.22;0.85;;;;;;;;;;4971322;28;20042;-65
2024/01/04 07:15:14;;;;;;;3.83;1.02;;;;;;;;;;4970463;28;20049;-65
2024/01/04 07:17:40;;;;;;;5.65;0.88;;;;;;;;;;4956186;28;20039;-65
2024/01/04 07:20:07;;;;;;;3.05;0.75;;;;;;;;;;4985301;28;20049;-65
2024/01/04 07:22:33;;;;;;;3.83;0.90;;;;;;;;;;4973650;28;20046;-65
2024/01/04 07:24:59;;;;;;;3.97;0.90;;;;;;;;;;4968563;28;20039;-65
2024/01/04 07:27:27;;;;;;;4.88;0.80;;;;;;;;;;4969005;28;20042;-65
2024/01/04 07:29:54;;;;;;;5.13;1.60;;;;;;;;;;4951678;28;20053;-65
2024/01/04 07:32:20;;;;;;;6.82;1.85;;;;;;;;;;4969455;28;20038;-65
2024/01/04 07:34:46;;;;;;;13.60;4.60;;;;;;;;;;4968480;28;20074;-65
2024/01/04 07:37:13;;;;;;;8.75;2.92;;;;;;;;;;4971593;28;20070;-65
2024/01/04 07:39:40;;;;;;;10.25;2.97;;;;;;;;;;4974627;28;20046;-65
2024/01/04 07:42:06;;;;;;;9.25;2.00;;;;;;;;;;4981352;28;20051;-65
2024/01/04 07:44:32;;;;;;;5.70;1.73;;;;;;;;;;4972295;28;20047;-65
2024/01/04 07:46:58;;;;;;;6.15;1.48;;;;;;;;;;4972068;28;20039;-65
2024/01/04 07:49:24;;;;;;;4.25;1.30;;;;;;;;;;4972790;28;20104;-65
2024/01/04 07:51:51;;;;;;;6.75;1.30;;;;;;;;;;4972509;28;20043;-65
2024/01/04 07:54:17;;;;;;;1.90;1.10;;;;;;;;;;4972008;28;20635;-65
2024/01/04 07:56:43;;;;;;;3.47;0.93;;;;;;;;;;4972685;28;20047;-65
2024/01/04 07:59:09;;;;;;;3.38;1.02;;;;;;;;;;4979187;28;20042;-65
2024/01/04 08:01:35;;;;;;;4.57;1.00;;;;;;;;;;4985605;28;20148;-65
2024/01/04 08:04:02;;;;;;;4.63;0.95;;;;;;;;;;4972597;28;20691;-65
2024/01/04 08:06:28;;;;;;;6.22;1.02;;;;;;;;;;4971292;28;20129;-65
2024/01/04 08:08:54;;;;;;;4.78;1.30;;;;;;;;;;4972478;28;20206;-65
2024/01/04 08:11:20;;;;;;;1.63;0.82;;;;;;;;;;4974414;28;20043;-65
2024/01/04 08:13:46;;;;;;;4.20;1.20;;;;;;;;;;4972439;28;20400;-65
2024/01/04 08:16:12;;;;;;;5.28;0.90;;;;;;;;;;4971275;28;20049;-65
2024/01/04 08:18:38;;;;;;;6.65;1.33;;;;;;;;;;4972268;28;20548;-65
2024/01/04 08:21:05;;;;;;;6.45;1.02;;;;;;;;;;4972042;28;20046;-64
2024/01/04 08:23:31;;;;;;;4.60;1.00;;;;;;;;;;4972341;28;20092;-66
2024/01/04 08:25:57;;;;;;;3.28;0.90;;;;;;;;;;4971392;28;20039;-67
2024/01/04 08:28:23;;;;;;;3.72;0.90;;;;;;;;;;4971889;28;20069;-64
2024/01/04 08:30:49;;;;;;;4.35;1.00;;;;;;;;;;4971779;28;20371;-64
2024/01/04 08:33:15;;;;;;;4.50;1.45;;;;;;;;;;4980641;28;20057;-65
2024/01/04 08:35:41;;;;;;;5.93;1.10;;;;;;;;;;4981254;28;20046;-65
2024/01/04 08:38:07;;;;;;;2.80;0.95;;;;;;;;;;4981679;28;20402;-65
2024/01/04 08:40:38;;;;;;;4.32;1.17;;;;;;;;;;4971877;28;20789;-64
2024/01/04 08:43:06;;;;;;;5.22;1.20;;;;;;;;;;4974273;28;20042;-64
2024/01/04 08:45:32;;;;;;;7.68;1.25;;;;;;;;;;4969860;28;20560;-64
2024/01/04 08:47:58;;;;;;;5.57;1.42;;;;;;;;;;4967590;28;20093;-64
2024/01/04 08:50:24;;;;;;;3.75;1.20;;;;;;;;;;4963549;28;20050;-64
2024/01/04 08:52:50;;;;;;;7.88;1.13;;;;;;;;;;4954081;28;20042;-65
2024/01/04 08:55:19;;;;;;;5.85;1.08;;;;;;;;;;4970660;28;20042;-65
2024/01/04 08:57:45;;;;;;;4.25;1.15;;;;;;;;;;4971377;28;20512;-65
2024/01/04 09:00:11;;;;;;;5.75;1.23;;;;;;;;;;4971165;28;20058;-66
2024/01/04 09:02:37;;;;;;;3.92;1.27;;;;;;;;;;4970996;28;20049;-65
2024/01/04 09:05:04;;;;;;;3.42;0.95;;;;;;;;;;4970772;28;20106;-66
2024/01/04 09:07:30;;;;;;;3.50;1.00;;;;;;;;;;4971226;28;20043;-65
2024/01/04 09:09:56;;;;;;;5.50;1.02;;;;;;;;;;4957233;28;20066;-65
2024/01/04 09:12:22;;;;;;;4.30;0.68;;;;;;;;;;4983866;28;20030;-65
2024/01/04 09:14:48;;;;;;;3.15;1.00;;;;;;;;;;4976572;28;20147;-65
2024/01/04 09:17:14;;;;;;;3.20;0.90;;;;;;;;;;4970211;28;20039;-65
2024/01/04 09:19:41;;;;;;;5.60;1.30;;;;;;;;;;4971094;28;20046;-65
2024/01/04 09:22:07;;;;;;;5.53;0.93;;;;;;;;;;4970877;28;20497;-65
2024/01/04 09:24:34;;;;;;;2.92;0.90;;;;;;;;;;4970563;28;20046;-65
2024/01/04 09:27:00;;;;;;;3.60;0.75;;;;;;;;;;4970241;28;20054;-65
2024/01/04 09:29:26;;;;;;;3.80;1.00;;;;;;;;;;4970693;28;20047;-65
2024/01/04 09:31:52;;;;;;;2.40;0.70;;;;;;;;;;4970397;28;20043;-65
2024/01/04 09:34:19;;;;;;;2.15;1.00;;;;;;;;;;4969772;28;20057;-65
2024/01/04 09:36:45;;;;;;;3.55;0.95;;;;;;;;;;4968264;28;20137;-65
2024/01/04 09:39:17;;;;;;;6.97;1.13;;;;;;;;;;4973889;28;20048;-65
2024/01/04 09:41:47;;;;;;;4.75;0.80;;;;;;;;;;4985656;28;20043;-65
2024/01/04 09:44:13;;;;;;;5.45;0.77;;;;;;;;;;4970667;28;20586;-65
2024/01/04 09:46:40;;;;;;;7.07;0.90;;;;;;;;;;4969764;28;20039;-65
2024/01/04 09:49:06;;;;;;;4.28;0.82;;;;;;;;;;4970453;28;20039;-66
2024/01/04 09:51:34;;;;;;;7.22;0.88;;;;;;;;;;4970168;28;20516;-66
2024/01/04 09:54:01;;;;;;;5.18;0.93;;;;;;;;;;4970273;28;20046;-66
2024/01/04 09:56:28;;;;;;;2.15;0.60;;;;;;;;;;4963255;28;21148;-67
2024/01/04 09:58:54;;;;;;;3.80;0.90;;;;;;;;;;4955598;28;20053;-66
2024/01/04 10:01:21;;;;;;;2.78;0.70;;;;;;;;;;4968659;28;20561;-68
2024/01/04 10:03:48;;;;;;;5.32;1.35;;;;;;;;;;4952889;28;20057;-68
2024/01/04 10:06:22;;;;;;;3.78;1.02;;;;;;;;;;4969041;28;20046;-68
2024/01/04 10:08:51;;;;;;;2.20;0.60;;;;;;;;;;4966171;28;20449;-68
2024/01/04 10:11:21;;;;;;;2.40;0.77;;;;;;;;;;4959255;28;20039;-68
2024/01/04 10:13:48;;;;;;;5.03;0.73;;;;;;;;;;4978899;28;20130;-68
2024/01/04 10:16:14;;;;;;;4.32;0.80;;;;;;;;;;4969677;28;20049;-67
2024/01/04 10:18:40;;;;;;;4.68;0.73;;;;;;;;;;4969383;28;20046;-68
2024/01/04 10:21:07;;;;;;;6.82;0.90;;;;;;;;;;4969817;28;20401;-69
2024/01/04 10:23:33;;;;;;;2.55;0.85;;;;;;;;;;4969233;28;20050;-70
2024/01/04 10:26:09;;;;;;;2.25;0.80;;;;;;;;;;4953510;28;20042;-71
2024/01/04 10:28:38;;;;;;;3.65;0.80;;;;;;;;;;4951989;28;20043;-69
2024/01/04 10:31:04;;;;;;;1.88;0.60;;;;;;;;;;4969924;28;20050;-68
2024/01/04 10:33:30;;;;;;;2.70;0.90;;;;;;;;;;4955859;28;20061;-69
2024/01/04 10:35:56;;;;;;;3.90;0.77;;;;;;;;;;4969583;28;20576;-69
2024/01/04 10:38:23;;;;;;;3.95;1.27;;;;;;;;;;4951445;28;20101;-69
2024/01/04 10:41:01;;;;;;;7.07;1.40;;;;;;;;;;4951960;28;20045;-68
2024/01/04 10:43:28;;;;;;;6.95;1.60;;;;;;;;;;4954083;28;20042;-68
2024/01/04 10:46:02;;;;;;;4.35;1.00;;;;;;;;;;4968901;28;20042;-69
2024/01/04 10:48:28;;;;;;;2.20;0.80;;;;;;;;;;4969118;28;20341;-68
2024/01/04 10:50:56;;;;;;;5.30;1.08;;;;;;;;;;4969521;28;20039;-69
2024/01/04 10:53:22;;;;;;;5.43;1.00;;;;;;;;;;4969135;28;20129;-68
2024/01/04 10:55:49;;;;;;;2.70;0.60;;;;;;;;;;4969076;28;20440;-67
2024/01/04 10:58:16;;;;;;;3.55;1.23;;;;;;;;;;4954259;28;20038;-69
2024/01/04 11:00:42;;;;;;;6.50;0.90;;;;;;;;;;4968731;28;21400;-70
2024/01/04 11:03:09;;;;;;;2.83;1.00;;;;;;;;;;4956751;28;20051;-69
2024/01/04 11:05:36;;;;;;;3.28;0.80;;;;;;;;;;4961450;28;20772;-68
2024/01/04 11:08:03;;;;;;;4.03;1.05;;;;;;;;;;4968443;28;20039;-68
2024/01/04 11:10:29;;;;;;;2.60;0.63;;;;;;;;;;4957858;28;20489;-68
2024/01/04 11:12:56;;;;;;;4.40;0.80;;;;;;;;;;4974756;28;20045;-68
2024/01/04 11:15:23;;;;;;;4.53;0.95;;;;;;;;;;4960035;28;20042;-69
2024/01/04 11:17:49;;;;;;;2.72;0.70;;;;;;;;;;4972430;28;20045;-69
2024/01/04 11:20:26;;;;;;;5.43;1.40;;;;;;;;;;4955271;28;20380;-68
2024/01/04 11:23:04;;;;;;;3.72;0.80;;;;;;;;;;4973446;28;20093;-68
2024/01/04 11:25:42;;;;;;;3.53;0.80;;;;;;;;;;4971199;28;20051;-68
2024/01/04 11:28:10;;;;;;;3.22;1.10;;;;;;;;;;4954497;28;20538;-68
2024/01/04 11:30:36;;;;;;;6.57;0.90;;;;;;;;;;4968861;28;20042;-68
2024/01/04 11:33:04;;;;;;;2.83;0.90;;;;;;;;;;4954287;28;20516;-69
2024/01/04 11:35:34;;;;;;;2.90;1.00;;;;;;;;;;4969127;28;20081;-68
2024/01/04 11:38:05;;;;;;;3.08;0.93;;;;;;;;;;4970832;28;20071;-70
2024/01/04 11:40:31;;;;;;;3.92;0.90;;;;;;;;;;4954601;28;20125;-69
2024/01/04 11:42:57;;;;;;;3.13;0.60;;;;;;;;;;4961515;28;20485;-68
2024/01/04 11:45:24;;;;;;;3.90;0.70;;;;;;;;;;4954436;28;20066;-68
2024/01/04 11:47:51;;;;;;;3.13;0.73;;;;;;;;;;4969672;28;20034;-68
2024/01/04 11:50:28;;;;;;;1.83;0.70;;;;;;;;;;4955544;28;20054;-68
2024/01/04 11:53:06;;;;;;;3.78;0.85;;;;;;;;;;4957905;28;20051;-68
2024/01/04 11:55:33;;;;;;;2.35;0.60;;;;;;;;;;4951224;28;20047;-68
2024/01/04 11:58:05;;;;;;;3.78;1.08;;;;;;;;;;4974080;28;20030;-68
2024/01/04 12:00:35;;;;;;;1.75;0.68;;;;;;;;;;4955021;28;20054;-68
2024/01/04 12:03:14;;;;;;;3.83;0.90;;;;;;;;;;4953213;28;20103;-70
2024/01/04 12:05:42;;;;;;;2.67;0.75;;;;;;;;;;4970962;28;20658;-69
2024/01/04 12:08:07;;;;;;;2.75;0.75;;;;;;;;;;4963596;28;20097;-69
2024/01/04 12:10:34;;;;;;;2.08;0.63;;;;;;;;;;4954755;28;20038;-69
2024/01/04 12:13:00;;;;;;;7.03;1.35;;;;;;;;;;4961218;28;20070;-69
2024/01/04 12:15:26;;;;;;;3.00;0.80;;;;;;;;;;4955906;28;20426;-69
2024/01/04 12:17:52;;;;;;;3.08;1.15;;;;;;;;;;4955727;28;20097;-68
2024/01/04 12:20:21;;;;;;;3.75;0.80;;;;;;;;;;4959063;28;20489;-68
2024/01/04 12:22:47;;;;;;;4.03;0.80;;;;;;;;;;4954247;28;20043;-68
2024/01/04 12:25:13;;;;;;;2.13;0.50;;;;;;;;;;4961063;28;20105;-69
2024/01/04 12:27:39;;;;;;;7.88;1.00;;;;;;;;;;4955649;28;20050;-69
2024/01/04 12:30:06;;;;;;;2.58;0.85;;;;;;;;;;4961351;28;20401;-69
2024/01/04 12:32:36;;;;;;;3.20;0.70;;;;;;;;;;4958011;28;20627;-69
2024/01/04 12:35:02;;;;;;;2.50;0.95;;;;;;;;;;4953997;28;20055;-69
2024/01/04 12:37:29;;;;;;;5.00;0.88;;;;;;;;;;4970413;28;20043;-69
2024/01/04 12:40:05;;;;;;;8.60;1.20;;;;;;;;;;4970148;28;20042;-70
2024/01/04 12:42:32;;;;;;;2.47;0.77;;;;;;;;;;4969162;28;20125;-69
2024/01/04 12:44:58;;;;;;;1.83;0.70;;;;;;;;;;4970394;28;20054;-69
2024/01/04 12:47:25;;;;;;;3.08;1.00;;;;;;;;;;4971189;28;20031;-68
2024/01/04 12:50:00;;;;;;;3.28;0.60;;;;;;;;;;4953164;28;20046;-68
2024/01/04 12:52:26;;;;;;;3.20;0.75;;;;;;;;;;4969912;28;20119;-69
2024/01/04 12:54:52;;;;;;;3.70;1.00;;;;;;;;;;4954155;28;20070;-69
2024/01/04 12:57:18;;;;;;;4.47;1.20;;;;;;;;;;4969204;28;20053;-67
2024/01/04 12:59:46;;;;;;;6.03;1.15;;;;;;;;;;4969893;28;20065;-67
2024/01/04 13:02:12;;;;;;;4.07;1.13;;;;;;;;;;4968976;28;20049;-68
2024/01/04 13:04:38;;;;;;;4.97;0.80;;;;;;;;;;4963218;28;20042;-68
2024/01/04 13:07:04;;;;;;;2.80;0.93;;;;;;;;;;4960889;28;20039;-68
2024/01/04 13:09:34;;;;;;;3.60;0.93;;;;;;;;;;4971936;28;20114;-69
2024/01/04 13:12:02;;;;;;;2.85;0.90;;;;;;;;;;4961686;28;20046;-68
2024/01/04 13:14:28;;;;;;;2.45;0.80;;;;;;;;;;4958954;28;20053;-67
2024/01/04 13:16:54;;;;;;;2.28;1.10;;;;;;;;;;4973248;28;20034;-67
2024/01/04 13:19:20;;;;;;;3.40;0.90;;;;;;;;;;4972080;28;20416;-67
2024/01/04 13:21:46;;;;;;;4.68;0.85;;;;;;;;;;4962076;28;20077;-67
2024/01/04 13:24:12;;;;;;;4.50;1.08;;;;;;;;;;4970872;28;20047;-68
2024/01/04 13:26:39;;;;;;;3.55;0.80;;;;;;;;;;4969661;28;20043;-68
2024/01/04 13:29:07;;;;;;;3.55;1.00;;;;;;;;;;4955833;28;20042;-68
2024/01/04 13:31:34;;;;;;;3.70;0.90;;;;;;;;;;4969878;28;20066;-67
2024/01/04 13:34:00;;;;;;;3.38;0.75;;;;;;;;;;4967965;28;20050;-68
2024/01/04 13:36:26;;;;;;;1.92;0.98;;;;;;;;;;4968570;28;20061;-67
2024/01/04 13:38:51;;;;;;;3.42;1.00;;;;;;;;;;4974946;28;20038;-67
2024/01/04 13:41:18;;;;;;;3.10;0.80;;;;;;;;;;4968473;28;20050;-69
2024/01/04 13:43:45;;;;;;;1.88;1.00;;;;;;;;;;4969623;28;20070;-69
2024/01/04 13:46:11;;;;;;;2.47;0.82;;;;;;;;;;4968934;28;20122;-68
2024/01/04 13:48:36;;;;;;;2.95;0.80;;;;;;;;;;4967274;28;20201;-68
2024/01/04 13:51:03;;;;;;;5.35;0.90;;;;;;;;;;4965419;28;20031;-69
2024/01/04 13:53:30;;;;;;;4.85;1.13;;;;;;;;;;4959474;28;20682;-68
2024/01/04 13:55:57;;;;;;;4.85;1.10;;;;;;;;;;4954233;28;20066;-66
2024/01/04 13:58:23;;;;;;;4.47;1.00;;;;;;;;;;4955263;28;20412;-67
2024/01/04 14:00:49;;;;;;;4.07;1.00;;;;;;;;;;4966757;28;20733;-66
2024/01/04 14:03:15;;;;;;;3.70;0.90;;;;;;;;;;4950563;28;20049;-67
2024/01/04 14:05:41;;;;;;;5.50;0.90;;;;;;;;;;4956413;28;20402;-66
2024/01/04 14:08:07;;;;;;;3.17;0.90;;;;;;;;;;4966408;28;20440;-67
2024/01/04 14:10:33;;;;;;;2.42;1.13;;;;;;;;;;4967517;28;20126;-68
2024/01/04 14:12:59;;;;;;;2.15;0.80;;;;;;;;;;4970910;28;20047;-67
2024/01/04 14:15:25;;;;;;;1.73;0.73;;;;;;;;;;4966624;28;20119;-67
2024/01/04 14:17:52;;;;;;;5.05;1.00;;;;;;;;;;4968192;28;20122;-67
2024/01/04 14:20:23;;;;;;;4.28;1.30;;;;;;;;;;4966841;28;20642;-67
2024/01/04 14:22:49;;;;;;;2.25;0.90;;;;;;;;;;4954059;28;20058;-67
2024/01/04 14:25:15;;;;;;;2.25;0.85;;;;;;;;;;4979178;28;20035;-67
2024/01/04 14:27:43;;;;;;;7.55;1.20;;;;;;;;;;4956397;28;20038;-67
2024/01/04 14:30:10;;;;;;;5.63;1.08;;;;;;;;;;4973659;28;20046;-66
2024/01/04 14:32:37;;;;;;;3.00;1.00;;;;;;;;;;4973568;28;20431;-66
2024/01/04 14:35:05;;;;;;;4.35;1.10;;;;;;;;;;4967175;28;20533;-66
2024/01/04 14:37:31;;;;;;;3.45;0.88;;;;;;;;;;4957539;28;20050;-66
2024/01/04 14:39:57;;;;;;;3.22;1.00;;;;;;;;;;4972610;28;20065;-66